sensor_id;sensor_type;location;lat;lon;timestamp;pressure;altitude;pressure_sealevel;temperature;humidity
71361;BME280;59166;48.908;1.870;2023-07-16T00:03:14;100001.53;;;17.24;64.39
71361;BME280;59166;48.908;1.870;2023-07-16T00:08:16;99993.47;;;17.19;64.61
71361;BME280;59166;48.908;1.870;2023-07-16T00:13:17;99987.84;;;17.16;64.96
71361;BME280;59166;48.908;1.870;2023-07-16T00:18:17;99986.91;;;17.07;65.46
71361;BME280;59166;48.908;1.870;2023-07-16T00:23:19;99987.69;;;16.99;66.04
71361;BME280;59166;48.908;1.870;2023-07-16T00:28:20;99990.41;;;16.99;66.48
71361;BME280;59166;48.908;1.870;2023-07-16T00:33:20;99986.97;;;16.93;66.82
71361;BME280;59166;48.908;1.870;2023-07-16T00:38:22;100005.69;;;16.86;67.92
71361;BME280;59166;48.908;1.870;2023-07-16T00:43:23;100002.47;;;16.84;68.38
71361;BME280;59166;48.908;1.870;2023-07-16T00:48:24;99998.56;;;16.76;68.67
71361;BME280;59166;48.908;1.870;2023-07-16T00:53:26;99998.69;;;16.71;69.24
71361;BME280;59166;48.908;1.870;2023-07-16T00:58:27;100006.69;;;16.68;69.64
71361;BME280;59166;48.908;1.870;2023-07-16T01:03:27;99996.50;;;16.60;70.53
71361;BME280;59166;48.908;1.870;2023-07-16T01:08:33;100007.16;;;16.48;71.39
71361;BME280;59166;48.908;1.870;2023-07-16T01:13:36;100001.16;;;16.45;71.62
71361;BME280;59166;48.908;1.870;2023-07-16T01:18:36;99993.94;;;16.41;72.09
71361;BME280;59166;48.908;1.870;2023-07-16T01:23:56;100002.41;;;16.39;72.37
71361;BME280;59166;48.908;1.870;2023-07-16T01:29:29;100003.50;;;16.38;72.74
71361;BME280;59166;48.908;1.870;2023-07-16T01:34:33;100018.47;;;16.27;73.27
71361;BME280;59166;48.908;1.870;2023-07-16T01:39:35;100002.22;;;16.22;73.56
71361;BME280;59166;48.908;1.870;2023-07-16T01:44:37;100015.97;;;16.17;73.83
71361;BME280;59166;48.908;1.870;2023-07-16T01:49:37;100019.59;;;16.13;74.36
71361;BME280;59166;48.908;1.870;2023-07-16T01:54:38;100029.19;;;16.10;74.83
71361;BME280;59166;48.908;1.870;2023-07-16T01:59:40;100024.94;;;16.04;75.21
71361;BME280;59166;48.908;1.870;2023-07-16T02:04:41;100023.09;;;16.00;75.71
71361;BME280;59166;48.908;1.870;2023-07-16T02:09:41;100026.44;;;15.97;76.20
71361;BME280;59166;48.908;1.870;2023-07-16T02:14:43;100025.81;;;15.86;76.73
71361;BME280;59166;48.908;1.870;2023-07-16T02:19:44;100036.44;;;15.87;77.01
71361;BME280;59166;48.908;1.870;2023-07-16T02:24:44;100043.38;;;15.80;77.45
71361;BME280;59166;48.908;1.870;2023-07-16T02:29:46;100050.03;;;15.74;77.83
71361;BME280;59166;48.908;1.870;2023-07-16T02:34:47;100049.00;;;15.70;78.05
71361;BME280;59166;48.908;1.870;2023-07-16T02:39:48;100054.25;;;15.66;78.42
71361;BME280;59166;48.908;1.870;2023-07-16T02:44:50;100059.28;;;15.59;78.90
71361;BME280;59166;48.908;1.870;2023-07-16T02:49:51;100058.25;;;15.55;78.99
71361;BME280;59166;48.908;1.870;2023-07-16T02:54:51;100057.81;;;15.48;79.68
71361;BME280;59166;48.908;1.870;2023-07-16T02:59:53;100058.63;;;15.49;79.85
71361;BME280;59166;48.908;1.870;2023-07-16T03:04:54;100057.72;;;15.39;80.37
71361;BME280;59166;48.908;1.870;2023-07-16T03:09:54;100061.03;;;15.36;81.00
71361;BME280;59166;48.908;1.870;2023-07-16T03:14:56;100061.69;;;15.28;81.55
71361;BME280;59166;48.908;1.870;2023-07-16T03:19:57;100061.69;;;15.28;81.66
71361;BME280;59166;48.908;1.870;2023-07-16T03:24:58;100055.22;;;15.24;82.01
71361;BME280;59166;48.908;1.870;2023-07-16T03:30:00;100054.78;;;15.17;82.18
71361;BME280;59166;48.908;1.870;2023-07-16T03:35:00;100059.94;;;15.19;82.78
71361;BME280;59166;48.908;1.870;2023-07-16T03:40:12;100071.50;;;15.11;83.04
71361;BME280;59166;48.908;1.870;2023-07-16T03:45:15;100080.03;;;15.04;83.29
71361;BME280;59166;48.908;1.870;2023-07-16T03:50:15;100085.56;;;14.99;83.80
71361;BME280;59166;48.908;1.870;2023-07-16T03:55:16;100085.81;;;14.79;84.65
71361;BME280;59166;48.908;1.870;2023-07-16T04:00:18;100092.13;;;14.74;85.38
71361;BME280;59166;48.908;1.870;2023-07-16T04:05:19;100100.28;;;14.74;85.62
71361;BME280;59166;48.908;1.870;2023-07-16T04:10:19;100100.06;;;14.71;85.94
71361;BME280;59166;48.908;1.870;2023-07-16T04:15:21;100106.13;;;14.63;86.76
71361;BME280;59166;48.908;1.870;2023-07-16T04:20:22;100100.47;;;14.59;87.11
71361;BME280;59166;48.908;1.870;2023-07-16T04:25:23;100114.41;;;14.53;87.81
71361;BME280;59166;48.908;1.870;2023-07-16T04:30:25;100118.53;;;14.50;88.57
71361;BME280;59166;48.908;1.870;2023-07-16T04:35:26;100126.69;;;14.50;89.18
71361;BME280;59166;48.908;1.870;2023-07-16T04:40:28;100122.06;;;14.51;89.68
71361;BME280;59166;48.908;1.870;2023-07-16T04:45:30;100141.06;;;14.56;89.67
71361;BME280;59166;48.908;1.870;2023-07-16T04:50:31;100149.34;;;14.64;89.42
71361;BME280;59166;48.908;1.870;2023-07-16T04:55:35;100154.84;;;14.59;89.76
71361;BME280;59166;48.908;1.870;2023-07-16T05:00:37;100153.97;;;14.64;89.69
71361;BME280;59166;48.908;1.870;2023-07-16T05:05:37;100149.22;;;14.56;90.70
71361;BME280;59166;48.908;1.870;2023-07-16T05:10:38;100151.34;;;14.59;90.82
71361;BME280;59166;48.908;1.870;2023-07-16T05:15:40;100162.13;;;14.64;90.58
71361;BME280;59166;48.908;1.870;2023-07-16T05:20:41;100170.63;;;14.81;89.85
71361;BME280;59166;48.908;1.870;2023-07-16T05:25:45;100162.25;;;14.77;90.58
71361;BME280;59166;48.908;1.870;2023-07-16T05:30:47;100166.69;;;14.92;89.99
71361;BME280;59166;48.908;1.870;2023-07-16T05:35:48;100182.00;;;15.07;89.31
71361;BME280;59166;48.908;1.870;2023-07-16T05:40:49;100190.84;;;15.17;89.04
71361;BME280;59166;48.908;1.870;2023-07-16T05:45:51;100192.84;;;15.30;88.83
71361;BME280;59166;48.908;1.870;2023-07-16T05:50:52;100192.63;;;15.46;87.42
71361;BME280;59166;48.908;1.870;2023-07-16T05:55:52;100204.47;;;15.55;87.72
71361;BME280;59166;48.908;1.870;2023-07-16T06:00:54;100198.25;;;15.68;86.67
71361;BME280;59166;48.908;1.870;2023-07-16T06:05:55;100197.59;;;15.76;86.66
71361;BME280;59166;48.908;1.870;2023-07-16T06:10:56;100204.56;;;15.82;85.74
71361;BME280;59166;48.908;1.870;2023-07-16T06:15:58;100210.28;;;15.99;85.53
71361;BME280;59166;48.908;1.870;2023-07-16T06:20:58;100207.63;;;16.13;85.01
71361;BME280;59166;48.908;1.870;2023-07-16T06:25:59;100201.38;;;16.12;84.73
71361;BME280;59166;48.908;1.870;2023-07-16T06:31:01;100208.94;;;16.15;84.77
71361;BME280;59166;48.908;1.870;2023-07-16T06:36:02;100215.06;;;16.39;83.96
71361;BME280;59166;48.908;1.870;2023-07-16T06:41:02;100186.78;;;16.63;81.86
71361;BME280;59166;48.908;1.870;2023-07-16T06:46:04;100193.88;;;16.91;80.39
71361;BME280;59166;48.908;1.870;2023-07-16T06:51:05;100198.28;;;17.14;78.78
71361;BME280;59166;48.908;1.870;2023-07-16T06:56:06;100188.56;;;17.35;77.20
71361;BME280;59166;48.908;1.870;2023-07-16T07:01:08;100196.78;;;17.58;77.02
71361;BME280;59166;48.908;1.870;2023-07-16T07:06:08;100207.41;;;17.81;75.24
71361;BME280;59166;48.908;1.870;2023-07-16T07:11:09;100220.00;;;17.91;73.31
71361;BME280;59166;48.908;1.870;2023-07-16T07:16:11;100219.66;;;18.06;72.83
71361;BME280;59166;48.908;1.870;2023-07-16T07:21:11;100221.38;;;18.24;71.39
71361;BME280;59166;48.908;1.870;2023-07-16T07:26:12;100223.84;;;18.12;72.50
71361;BME280;59166;48.908;1.870;2023-07-16T07:31:14;100240.41;;;18.29;72.53
71361;BME280;59166;48.908;1.870;2023-07-16T07:36:15;100234.38;;;18.19;71.94
71361;BME280;59166;48.908;1.870;2023-07-16T07:41:15;100237.41;;;18.39;71.48
71361;BME280;59166;48.908;1.870;2023-07-16T07:46:17;100249.63;;;18.73;69.56
71361;BME280;59166;48.908;1.870;2023-07-16T07:51:18;100247.31;;;18.97;69.97
71361;BME280;59166;48.908;1.870;2023-07-16T07:56:19;100265.16;;;19.25;67.32
71361;BME280;59166;48.908;1.870;2023-07-16T08:01:21;100249.50;;;19.26;66.62
71361;BME280;59166;48.908;1.870;2023-07-16T08:06:21;100248.56;;;19.30;67.08
71361;BME280;59166;48.908;1.870;2023-07-16T08:11:22;100251.13;;;19.18;66.03
71361;BME280;59166;48.908;1.870;2023-07-16T08:16:24;100268.56;;;19.39;63.11
71361;BME280;59166;48.908;1.870;2023-07-16T08:21:25;100254.41;;;19.80;62.17
71361;BME280;59166;48.908;1.870;2023-07-16T08:26:25;100252.66;;;19.93;62.61
71361;BME280;59166;48.908;1.870;2023-07-16T08:31:27;100260.22;;;20.22;59.29
71361;BME280;59166;48.908;1.870;2023-07-16T08:36:28;100253.28;;;20.33;59.75
71361;BME280;59166;48.908;1.870;2023-07-16T08:41:29;100259.88;;;20.32;58.80
71361;BME280;59166;48.908;1.870;2023-07-16T08:46:31;100260.00;;;20.44;58.67
71361;BME280;59166;48.908;1.870;2023-07-16T08:51:32;100259.81;;;21.04;57.53
71361;BME280;59166;48.908;1.870;2023-07-16T08:56:34;100269.00;;;21.08;55.62
71361;BME280;59166;48.908;1.870;2023-07-16T09:01:37;100270.19;;;20.43;55.80
71361;BME280;59166;48.908;1.870;2023-07-16T09:06:37;100269.34;;;20.52;54.58
71361;BME280;59166;48.908;1.870;2023-07-16T09:11:46;100271.09;;;20.65;55.16
71361;BME280;59166;48.908;1.870;2023-07-16T09:16:49;100263.25;;;21.01;53.67
71361;BME280;59166;48.908;1.870;2023-07-16T09:21:50;100250.28;;;21.81;52.00
71361;BME280;59166;48.908;1.870;2023-07-16T09:26:53;100267.50;;;23.00;49.51
71361;BME280;59166;48.908;1.870;2023-07-16T09:31:56;100259.44;;;23.08;48.82
71361;BME280;59166;48.908;1.870;2023-07-16T09:36:58;100260.41;;;21.89;52.21
71361;BME280;59166;48.908;1.870;2023-07-16T09:41:59;100262.66;;;22.97;48.65
71361;BME280;59166;48.908;1.870;2023-07-16T09:47:01;100270.88;;;22.28;49.42
71361;BME280;59166;48.908;1.870;2023-07-16T09:52:02;100256.16;;;22.45;49.77
71361;BME280;59166;48.908;1.870;2023-07-16T09:57:04;100257.53;;;21.85;50.21
71361;BME280;59166;48.908;1.870;2023-07-16T10:02:06;100262.91;;;21.82;50.13
71361;BME280;59166;48.908;1.870;2023-07-16T10:07:19;100259.97;;;21.58;51.14
71361;BME280;59166;48.908;1.870;2023-07-16T10:12:20;100247.56;;;22.14;49.57
71361;BME280;59166;48.908;1.870;2023-07-16T10:17:23;100247.63;;;22.95;46.99
71361;BME280;59166;48.908;1.870;2023-07-16T10:22:32;100259.09;;;23.45;46.69
71361;BME280;59166;48.908;1.870;2023-07-16T10:27:34;100252.34;;;23.83;43.98
71361;BME280;59166;48.908;1.870;2023-07-16T10:32:36;100250.34;;;24.35;44.36
71361;BME280;59166;48.908;1.870;2023-07-16T10:37:38;100269.88;;;23.75;45.44
71361;BME280;59166;48.908;1.870;2023-07-16T10:42:41;100255.44;;;23.05;45.17
71361;BME280;59166;48.908;1.870;2023-07-16T10:47:54;100247.28;;;22.60;47.17
71361;BME280;59166;48.908;1.870;2023-07-16T10:52:56;100258.19;;;22.81;47.98
71361;BME280;59166;48.908;1.870;2023-07-16T10:57:57;100261.88;;;23.09;46.95
71361;BME280;59166;48.908;1.870;2023-07-16T11:02:59;100258.63;;;23.95;46.31
71361;BME280;59166;48.908;1.870;2023-07-16T11:07:59;100267.44;;;25.00;42.93
71361;BME280;59166;48.908;1.870;2023-07-16T11:13:00;100261.97;;;24.88;39.30
71361;BME280;59166;48.908;1.870;2023-07-16T11:18:02;100261.78;;;25.12;40.91
71361;BME280;59166;48.908;1.870;2023-07-16T11:23:04;100258.50;;;25.07;40.53
71361;BME280;59166;48.908;1.870;2023-07-16T11:28:04;100250.44;;;24.70;40.54
71361;BME280;59166;48.908;1.870;2023-07-16T11:33:09;100261.63;;;24.74;40.56
71361;BME280;59166;48.908;1.870;2023-07-16T11:38:10;100236.22;;;25.34;39.53
71361;BME280;59166;48.908;1.870;2023-07-16T11:43:11;100247.28;;;24.40;41.18
71361;BME280;59166;48.908;1.870;2023-07-16T11:48:14;100240.69;;;24.29;42.08
71361;BME280;59166;48.908;1.870;2023-07-16T11:53:16;100244.94;;;24.11;41.06
71361;BME280;59166;48.908;1.870;2023-07-16T11:58:17;100256.47;;;24.01;39.68
71361;BME280;59166;48.908;1.870;2023-07-16T12:03:19;100264.38;;;24.02;39.90
71361;BME280;59166;48.908;1.870;2023-07-16T12:08:20;100272.78;;;23.94;40.60
71361;BME280;59166;48.908;1.870;2023-07-16T12:13:21;100260.25;;;23.96;41.22
71361;BME280;59166;48.908;1.870;2023-07-16T12:18:23;100253.91;;;24.08;40.92
71361;BME280;59166;48.908;1.870;2023-07-16T12:23:23;100236.81;;;23.90;40.90
71361;BME280;59166;48.908;1.870;2023-07-16T12:28:24;100249.19;;;23.96;41.81
71361;BME280;59166;48.908;1.870;2023-07-16T12:33:26;100259.63;;;24.15;41.79
71361;BME280;59166;48.908;1.870;2023-07-16T12:38:27;100256.09;;;24.30;41.89
71361;BME280;59166;48.908;1.870;2023-07-16T12:43:27;100265.56;;;24.73;39.94
71361;BME280;59166;48.908;1.870;2023-07-16T12:48:29;100266.19;;;24.38;41.49
71361;BME280;59166;48.908;1.870;2023-07-16T12:53:30;100263.59;;;24.89;42.09
71361;BME280;59166;48.908;1.870;2023-07-16T12:58:31;100252.00;;;24.99;38.46
71361;BME280;59166;48.908;1.870;2023-07-16T13:03:33;100252.13;;;25.91;38.66
71361;BME280;59166;48.908;1.870;2023-07-16T13:08:34;100238.50;;;26.40;36.56
71361;BME280;59166;48.908;1.870;2023-07-16T13:13:34;100232.56;;;25.81;37.19
71361;BME280;59166;48.908;1.870;2023-07-16T13:18:36;100221.09;;;26.01;37.17
71361;BME280;59166;48.908;1.870;2023-07-16T13:23:37;100230.00;;;26.11;34.42
71361;BME280;59166;48.908;1.870;2023-07-16T13:28:37;100223.47;;;26.41;31.85
71361;BME280;59166;48.908;1.870;2023-07-16T13:33:39;100225.75;;;26.59;33.12
71361;BME280;59166;48.908;1.870;2023-07-16T13:38:40;100204.88;;;27.14;33.33
71361;BME280;59166;48.908;1.870;2023-07-16T13:43:41;100219.41;;;26.58;34.63
71361;BME280;59166;48.908;1.870;2023-07-16T13:48:43;100225.72;;;26.78;34.65
71361;BME280;59166;48.908;1.870;2023-07-16T13:53:43;100229.31;;;26.36;35.91
71361;BME280;59166;48.908;1.870;2023-07-16T13:58:45;100235.66;;;26.37;36.16
71361;BME280;59166;48.908;1.870;2023-07-16T14:03:47;100234.03;;;26.36;35.32
71361;BME280;59166;48.908;1.870;2023-07-16T14:08:48;100240.47;;;26.63;32.65
71361;BME280;59166;48.908;1.870;2023-07-16T14:13:49;100230.00;;;26.11;34.26
71361;BME280;59166;48.908;1.870;2023-07-16T14:18:52;100238.53;;;25.48;35.93
71361;BME280;59166;48.908;1.870;2023-07-16T14:23:53;100238.06;;;25.27;36.93
71361;BME280;59166;48.908;1.870;2023-07-16T14:28:54;100243.97;;;25.98;36.15
71361;BME280;59166;48.908;1.870;2023-07-16T14:33:56;100249.22;;;26.65;35.06
71361;BME280;59166;48.908;1.870;2023-07-16T14:38:56;100236.41;;;27.02;35.12
71361;BME280;59166;48.908;1.870;2023-07-16T14:43:57;100221.56;;;26.68;34.89
71361;BME280;59166;48.908;1.870;2023-07-16T14:48:59;100217.00;;;25.95;37.29
71361;BME280;59166;48.908;1.870;2023-07-16T14:53:59;100219.44;;;25.78;36.47
71361;BME280;59166;48.908;1.870;2023-07-16T14:59:00;100207.41;;;25.35;35.42
71361;BME280;59166;48.908;1.870;2023-07-16T15:04:02;100187.28;;;25.00;37.51
71361;BME280;59166;48.908;1.870;2023-07-16T15:09:03;100190.72;;;26.24;34.86
71361;BME280;59166;48.908;1.870;2023-07-16T15:14:03;100209.44;;;26.53;32.48
71361;BME280;59166;48.908;1.870;2023-07-16T15:19:06;100184.56;;;27.32;31.70
71361;BME280;59166;48.908;1.870;2023-07-16T15:24:06;100188.03;;;27.52;30.86
71361;BME280;59166;48.908;1.870;2023-07-16T15:29:07;100181.69;;;27.25;30.95
71361;BME280;59166;48.908;1.870;2023-07-16T15:34:09;100193.69;;;26.35;33.11
71361;BME280;59166;48.908;1.870;2023-07-16T15:39:09;100174.13;;;27.22;31.31
71361;BME280;59166;48.908;1.870;2023-07-16T15:44:10;100175.47;;;27.62;30.23
71361;BME280;59166;48.908;1.870;2023-07-16T15:49:12;100177.56;;;26.86;32.10
71361;BME280;59166;48.908;1.870;2023-07-16T15:54:13;100182.47;;;26.09;32.91
71361;BME280;59166;48.908;1.870;2023-07-16T15:59:14;100180.78;;;26.23;32.44
71361;BME280;59166;48.908;1.870;2023-07-16T16:04:16;100182.75;;;26.23;32.71
71361;BME280;59166;48.908;1.870;2023-07-16T16:09:16;100178.63;;;25.75;34.15
71361;BME280;59166;48.908;1.870;2023-07-16T16:14:17;100191.69;;;25.74;34.28
71361;BME280;59166;48.908;1.870;2023-07-16T16:19:22;100176.69;;;25.56;34.88
71361;BME280;59166;48.908;1.870;2023-07-16T16:24:22;100193.56;;;25.16;35.08
71361;BME280;59166;48.908;1.870;2023-07-16T16:29:23;100186.38;;;24.80;36.44
71361;BME280;59166;48.908;1.870;2023-07-16T16:34:25;100180.50;;;24.82;36.59
71361;BME280;59166;48.908;1.870;2023-07-16T16:39:26;100176.47;;;24.64;37.43
71361;BME280;59166;48.908;1.870;2023-07-16T16:44:26;100193.13;;;24.67;38.13
71361;BME280;59166;48.908;1.870;2023-07-16T16:49:28;100191.09;;;24.64;37.76
71361;BME280;59166;48.908;1.870;2023-07-16T16:54:29;100190.81;;;24.53;38.00
71361;BME280;59166;48.908;1.870;2023-07-16T16:59:29;100190.22;;;24.44;38.24
71361;BME280;59166;48.908;1.870;2023-07-16T17:04:32;100191.06;;;24.33;38.37
71361;BME280;59166;48.908;1.870;2023-07-16T17:09:32;100198.91;;;24.31;38.47
71361;BME280;59166;48.908;1.870;2023-07-16T17:14:33;100194.91;;;24.28;38.43
71361;BME280;59166;48.908;1.870;2023-07-16T17:19:35;100194.09;;;24.12;38.58
71361;BME280;59166;48.908;1.870;2023-07-16T17:24:36;100158.44;;;23.79;42.14
71361;BME280;59166;48.908;1.870;2023-07-16T17:29:36;100236.38;;;23.24;46.77
71361;BME280;59166;48.908;1.870;2023-07-16T17:34:38;100231.56;;;22.73;49.42
71361;BME280;59166;48.908;1.870;2023-07-16T17:39:39;100242.78;;;22.56;51.21
71361;BME280;59166;48.908;1.870;2023-07-16T17:44:40;100244.16;;;22.49;52.64
71361;BME280;59166;48.908;1.870;2023-07-16T17:49:42;100240.75;;;22.44;52.73
71361;BME280;59166;48.908;1.870;2023-07-16T17:54:42;100236.03;;;22.32;53.95
71361;BME280;59166;48.908;1.870;2023-07-16T17:59:43;100239.94;;;22.43;53.97
71361;BME280;59166;48.908;1.870;2023-07-16T18:04:45;100244.16;;;22.49;53.59
71361;BME280;59166;48.908;1.870;2023-07-16T18:09:45;100248.41;;;22.59;53.49
71361;BME280;59166;48.908;1.870;2023-07-16T18:14:46;100246.22;;;22.65;53.48
71361;BME280;59166;48.908;1.870;2023-07-16T18:19:48;100249.22;;;22.72;53.60
71361;BME280;59166;48.908;1.870;2023-07-16T18:24:49;100248.75;;;22.58;54.08
71361;BME280;59166;48.908;1.870;2023-07-16T18:29:49;100244.16;;;22.49;53.16
71361;BME280;59166;48.908;1.870;2023-07-16T18:34:51;100252.28;;;22.58;53.29
71361;BME280;59166;48.908;1.870;2023-07-16T18:39:52;100261.31;;;22.46;54.30
71361;BME280;59166;48.908;1.870;2023-07-16T18:44:54;100259.44;;;22.26;54.11
71361;BME280;59166;48.908;1.870;2023-07-16T18:49:56;100268.75;;;22.13;54.88
71361;BME280;59166;48.908;1.870;2023-07-16T18:54:57;100270.75;;;21.92;55.48
71361;BME280;59166;48.908;1.870;2023-07-16T18:59:58;100281.13;;;21.86;56.91
71361;BME280;59166;48.908;1.870;2023-07-16T19:05:00;100277.13;;;21.84;57.60
71361;BME280;59166;48.908;1.870;2023-07-16T19:10:00;100278.34;;;21.66;58.42
71361;BME280;59166;48.908;1.870;2023-07-16T19:15:01;100284.91;;;21.52;58.59
71361;BME280;59166;48.908;1.870;2023-07-16T19:20:04;100292.63;;;21.38;59.19
71361;BME280;59166;48.908;1.870;2023-07-16T19:25:05;100296.38;;;21.25;59.54
71361;BME280;59166;48.908;1.870;2023-07-16T19:30:07;100306.63;;;21.16;59.85
71361;BME280;59166;48.908;1.870;2023-07-16T19:35:09;100311.34;;;21.07;59.34
71361;BME280;59166;48.908;1.870;2023-07-16T19:40:10;100321.75;;;20.93;60.74
71361;BME280;59166;48.908;1.870;2023-07-16T19:45:11;100334.19;;;20.82;60.90
71361;BME280;59166;48.908;1.870;2023-07-16T19:50:13;100337.28;;;20.72;60.35
71361;BME280;59166;48.908;1.870;2023-07-16T19:55:13;100345.38;;;20.60;60.59
71361;BME280;59166;48.908;1.870;2023-07-16T20:00:14;100359.28;;;20.37;59.02
71361;BME280;59166;48.908;1.870;2023-07-16T20:05:16;100369.47;;;20.37;58.75
71361;BME280;59166;48.908;1.870;2023-07-16T20:10:17;100380.63;;;20.23;61.29
71361;BME280;59166;48.908;1.870;2023-07-16T20:15:17;100375.44;;;20.13;63.34
71361;BME280;59166;48.908;1.870;2023-07-16T20:20:19;100364.25;;;19.92;65.03
71361;BME280;59166;48.908;1.870;2023-07-16T20:25:20;100376.97;;;19.80;66.44
71361;BME280;59166;48.908;1.870;2023-07-16T20:30:21;100393.88;;;19.65;67.66
71361;BME280;59166;48.908;1.870;2023-07-16T20:35:23;100400.91;;;19.48;68.59
71361;BME280;59166;48.908;1.870;2023-07-16T20:40:24;100409.25;;;19.35;69.08
71361;BME280;59166;48.908;1.870;2023-07-16T20:45:25;100413.41;;;19.32;69.29
71361;BME280;59166;48.908;1.870;2023-07-16T20:50:28;100410.50;;;19.29;69.11
71361;BME280;59166;48.908;1.870;2023-07-16T20:55:29;100416.59;;;19.26;69.12
71361;BME280;59166;48.908;1.870;2023-07-16T21:00:30;100422.53;;;19.19;69.32
71361;BME280;59166;48.908;1.870;2023-07-16T21:05:33;100422.84;;;18.95;70.22
71361;BME280;59166;48.908;1.870;2023-07-16T21:10:34;100440.47;;;18.81;71.02
71361;BME280;59166;48.908;1.870;2023-07-16T21:15:34;100439.53;;;18.63;72.17
71361;BME280;59166;48.908;1.870;2023-07-16T21:20:37;100440.88;;;18.52;72.73
71361;BME280;59166;48.908;1.870;2023-07-16T21:25:37;100453.50;;;18.39;73.43
71361;BME280;59166;48.908;1.870;2023-07-16T21:30:38;100447.25;;;18.25;73.91
71361;BME280;59166;48.908;1.870;2023-07-16T21:35:40;100453.44;;;18.04;74.57
71361;BME280;59166;48.908;1.870;2023-07-16T21:40:41;100459.63;;;17.82;75.56
71361;BME280;59166;48.908;1.870;2023-07-16T21:45:42;100460.66;;;17.72;76.09
71361;BME280;59166;48.908;1.870;2023-07-16T21:50:44;100477.63;;;17.56;76.86
71361;BME280;59166;48.908;1.870;2023-07-16T21:55:44;100478.00;;;17.35;77.82
71361;BME280;59166;48.908;1.870;2023-07-16T22:00:45;100475.34;;;17.17;78.61
71361;BME280;59166;48.908;1.870;2023-07-16T22:05:47;100471.53;;;17.13;78.63
71361;BME280;59166;48.908;1.870;2023-07-16T22:10:48;100476.72;;;17.14;78.44
71361;BME280;59166;48.908;1.870;2023-07-16T22:15:48;100476.88;;;17.04;78.74
71361;BME280;59166;48.908;1.870;2023-07-16T22:20:50;100489.06;;;16.93;79.52
71361;BME280;59166;48.908;1.870;2023-07-16T22:25:51;100489.81;;;16.99;78.82
71361;BME280;59166;48.908;1.870;2023-07-16T22:30:52;100493.44;;;16.94;79.45
71361;BME280;59166;48.908;1.870;2023-07-16T22:35:54;100500.53;;;16.95;79.53
71361;BME280;59166;48.908;1.870;2023-07-16T22:40:54;100509.31;;;16.92;79.85
71361;BME280;59166;48.908;1.870;2023-07-16T22:45:55;100521.47;;;16.81;80.38
71361;BME280;59166;48.908;1.870;2023-07-16T22:50:57;100518.09;;;16.70;81.04
71361;BME280;59166;48.908;1.870;2023-07-16T22:55:57;100523.19;;;16.58;81.58
71361;BME280;59166;48.908;1.870;2023-07-16T23:00:58;100526.28;;;16.52;81.56
71361;BME280;59166;48.908;1.870;2023-07-16T23:06:00;100522.75;;;16.51;81.36
71361;BME280;59166;48.908;1.870;2023-07-16T23:11:01;100528.34;;;16.41;81.23
71361;BME280;59166;48.908;1.870;2023-07-16T23:16:01;100523.00;;;16.31;81.24
71361;BME280;59166;48.908;1.870;2023-07-16T23:21:03;100518.06;;;16.14;81.74
71361;BME280;59166;48.908;1.870;2023-07-16T23:26:04;100517.56;;;16.07;81.66
71361;BME280;59166;48.908;1.870;2023-07-16T23:31:04;100515.47;;;15.99;81.89
71361;BME280;59166;48.908;1.870;2023-07-16T23:36:07;100522.09;;;15.93;82.41
71361;BME280;59166;48.908;1.870;2023-07-16T23:41:07;100531.19;;;15.83;82.78
71361;BME280;59166;48.908;1.870;2023-07-16T23:46:08;100518.50;;;15.74;83.18
71361;BME280;59166;48.908;1.870;2023-07-16T23:51:10;100527.53;;;15.69;83.82
71361;BME280;59166;48.908;1.870;2023-07-16T23:56:10;100527.31;;;15.61;84.36
